Negombo, Sri Lanka
Current Conditions -  °F | °C
As of 4:10 PM on Tuesday 21 Oct 2014 (Local Time) from VCBI Reporting Station
Scattered Clouds Scattered Clouds  
Wind Chill: 84°   Ceiling: Unl
Heat Index: 92°   Visibility: 6mi
Dew Point: 75°   Wind: 8mph
Humidity: 74%   Direction: 250°WSW
Pressure: 29.77"   Gusts: NA
Location:  7.22°N, 79.83°E
Report Text: VCBI 211010Z 25007KT 220V300 9999 FEW016 SCT018CB 29/24 Q1008 NOSIG
Loading
Personal Weather Stations






























Interactive Weather Map
Tropical Storm Tracking
New forecast layout! Learn more

10-Day Weather Forecast

Advertisements
Track Severe Weather on mobile